Time;durP1;ratioP1;P1;durP2;ratioP2;P2;SDS_P1;SDS_P2;PMS_P1;PMS_P2;Temp;Humidity;BMP_temperature;BMP_pressure;BME280_temperature;BME280_humidity;BME280_pressure;Samples;Min_cycle;Max_cycle;Signal;HPM_P1;HPM_P2
2022/09/29 00:04:28;;;;;;;;;;;7.90;99.90;;;;;;12471077;28;19930;-85
2022/09/29 00:10:30;;;;;;;;;;;7.90;99.90;;;;;;12462967;28;19929;-85
2022/09/29 00:16:31;;;;;;;;;;;7.90;99.90;;;;;;12486199;28;19940;-85
2022/09/29 00:22:33;;;;;;;;;;;7.90;99.90;;;;;;12480546;28;19925;-85
2022/09/29 00:28:36;;;;;;;;;;;7.90;99.90;;;;;;12461830;28;20368;-84
2022/09/29 00:34:37;;;;;;;;;;;8.00;99.90;;;;;;12489597;28;19929;-85
2022/09/29 00:40:39;;;;;;;;;;;8.00;99.90;;;;;;12481780;28;19926;-85
2022/09/29 00:46:41;;;;;;;;;;;8.10;99.90;;;;;;12496743;28;19935;-85
2022/09/29 00:52:45;;;;;;;;;;;8.10;99.90;;;;;;12493309;28;19926;-85
2022/09/29 00:58:56;;;;;;;;;;;8.00;99.90;;;;;;12476345;28;19929;-84
2022/09/29 01:04:58;;;;;;;;;;;8.00;99.90;;;;;;12472591;28;20396;-84
2022/09/29 01:11:01;;;;;;;;;;;7.90;99.90;;;;;;12424750;28;20400;-85
2022/09/29 01:17:03;;;;;;;;;;;7.90;99.90;;;;;;12421723;28;19933;-85
2022/09/29 01:23:27;;;;;;;;;;;7.90;99.90;;;;;;12413786;28;19930;-85
2022/09/29 01:29:41;;;;;;;;;;;7.90;99.90;;;;;;12428689;28;19930;-85
2022/09/29 01:36:02;;;;;;;;;;;7.90;99.90;;;;;;12424569;28;19925;-85
2022/09/29 01:42:06;;;;;;;;;;;7.80;99.90;;;;;;12412932;28;19926;-85
2022/09/29 01:48:10;;;;;;;;;;;7.80;99.90;;;;;;12419111;28;20036;-85
2022/09/29 01:54:16;;;;;;;;;;;7.80;99.90;;;;;;12412982;28;20381;-85
2022/09/29 02:00:19;;;;;;;;;;;7.80;99.90;;;;;;12437065;28;20044;-85
2022/09/29 02:06:27;;;;;;;;;;;7.90;99.90;;;;;;12420171;28;19929;-85
2022/09/29 02:12:31;;;;;;;;;;;7.80;99.90;;;;;;12466022;28;20646;-85
2022/09/29 02:18:36;;;;;;;;;;;7.80;99.90;;;;;;12477654;28;19932;-85
2022/09/29 02:24:38;;;;;;;;;;;7.80;99.90;;;;;;12467057;28;19933;-85
2022/09/29 02:30:40;;;;;;;;;;;7.80;99.90;;;;;;12478817;28;19930;-85
2022/09/29 02:37:00;;;;;;;;;;;7.90;99.90;;;;;;12479867;28;20277;-85
2022/09/29 02:43:33;;;;;;;;;;;7.90;99.90;;;;;;12469071;28;19929;-85
2022/09/29 02:49:35;;;;;;;;;;;7.90;99.90;;;;;;12438900;28;19937;-85
2022/09/29 02:55:43;;;;;;;;;;;8.00;99.90;;;;;;12478823;28;20384;-85
2022/09/29 03:01:50;;;;;;;;;;;8.00;99.90;;;;;;12473648;28;19925;-85
2022/09/29 03:07:51;;;;;;;;;;;8.00;99.90;;;;;;12476988;28;19930;-85
2022/09/29 03:13:54;;;;;;;;;;;8.00;99.90;;;;;;12461830;28;20381;-85
2022/09/29 03:19:56;;;;;;;;;;;7.90;99.90;;;;;;12463975;28;19931;-85
2022/09/29 03:25:58;;;;;;;;;;;7.90;99.90;;;;;;12479681;28;19933;-84
2022/09/29 03:32:00;;;;;;;;;;;8.00;99.90;;;;;;12470749;28;19925;-85
2022/09/29 03:38:02;;;;;;;;;;;7.90;99.90;;;;;;12476072;28;19925;-85
2022/09/29 03:44:03;;;;;;;;;;;7.90;99.90;;;;;;12471743;28;19925;-85
2022/09/29 03:50:05;;;;;;;;;;;7.90;99.90;;;;;;12473607;28;19925;-85
2022/09/29 03:56:07;;;;;;;;;;;8.00;99.90;;;;;;12470160;28;20427;-85
2022/09/29 04:02:08;;;;;;;;;;;8.00;99.90;;;;;;12485783;28;19932;-85
2022/09/29 04:08:10;;;;;;;;;;;7.90;99.90;;;;;;12472735;28;19929;-85
2022/09/29 04:14:12;;;;;;;;;;;7.90;99.90;;;;;;12465852;28;19926;-85
2022/09/29 04:20:13;;;;;;;;;;;7.90;99.90;;;;;;12474545;28;19937;-85
2022/09/29 04:26:15;;;;;;;;;;;7.80;99.90;;;;;;12458433;28;19933;-85
2022/09/29 04:32:17;;;;;;;;;;;7.80;99.90;;;;;;12487297;28;19926;-85
2022/09/29 04:38:19;;;;;;;;;;;7.70;99.90;;;;;;12467381;28;19929;-85
2022/09/29 04:44:23;;;;;;;;;;;7.60;99.90;;;;;;12475292;28;19925;-85
2022/09/29 04:50:24;;;;;;;;;;;7.70;99.90;;;;;;12475359;28;20262;-85
2022/09/29 04:56:30;;;;;;;;;;;7.60;99.90;;;;;;12474202;28;20284;-85
2022/09/29 05:02:32;;;;;;;;;;;7.60;99.90;;;;;;12468267;28;19925;-85
2022/09/29 05:08:34;;;;;;;;;;;7.60;99.90;;;;;;12471837;28;19933;-85
2022/09/29 05:14:36;;;;;;;;;;;7.60;99.90;;;;;;12461503;28;19932;-85
2022/09/29 05:20:37;;;;;;;;;;;7.60;99.90;;;;;;12468837;28;19929;-86
2022/09/29 05:26:55;;;;;;;;;;;7.70;99.90;;;;;;12469159;28;19955;-85
2022/09/29 05:32:59;;;;;;;;;;;7.60;99.90;;;;;;12470445;28;19925;-85
2022/09/29 05:39:00;;;;;;;;;;;7.50;99.90;;;;;;12469287;28;20392;-85
2022/09/29 05:45:02;;;;;;;;;;;7.50;99.90;;;;;;12469386;28;19940;-85
2022/09/29 05:51:11;;;;;;;;;;;7.80;99.90;;;;;;12469212;28;19933;-85
2022/09/29 05:57:13;;;;;;;;;;;7.90;99.90;;;;;;12491795;28;20416;-85
2022/09/29 06:03:14;;;;;;;;;;;7.80;99.90;;;;;;12483968;28;19925;-85
2022/09/29 06:09:16;;;;;;;;;;;7.50;99.90;;;;;;12449530;28;20405;-85
2022/09/29 06:15:18;;;;;;;;;;;7.80;99.90;;;;;;12478276;28;20277;-85
2022/09/29 06:21:22;;;;;;;;;;;7.80;99.90;;;;;;12457800;28;19925;-85
2022/09/29 06:27:24;;;;;;;;;;;7.70;99.90;;;;;;12471632;28;19925;-85
2022/09/29 06:33:29;;;;;;;;;;;7.80;99.90;;;;;;12468052;28;19925;-85
2022/09/29 06:39:30;;;;;;;;;;;7.50;99.90;;;;;;12473447;28;19932;-85
2022/09/29 06:45:32;;;;;;;;;;;7.60;99.90;;;;;;12459565;28;19925;-85
2022/09/29 06:51:34;;;;;;;;;;;7.60;99.90;;;;;;12460260;28;19936;-85
2022/09/29 06:57:46;;;;;;;;;;;7.60;99.90;;;;;;12468616;28;19926;-86
2022/09/29 07:03:48;;;;;;;;;;;7.80;99.90;;;;;;12469265;28;19940;-86
2022/09/29 07:09:50;;;;;;;;;;;8.00;99.90;;;;;;12429859;28;19925;-86
2022/09/29 07:15:53;;;;;;;;;;;8.00;99.90;;;;;;12417439;28;20326;-86
2022/09/29 07:21:54;;;;;;;;;;;8.30;99.90;;;;;;12404685;28;20278;-86
2022/09/29 07:27:58;;;;;;;;;;;8.40;99.90;;;;;;12398639;28;20497;-86
2022/09/29 07:33:59;;;;;;;;;;;8.50;99.90;;;;;;12415836;28;19933;-86
2022/09/29 07:40:01;;;;;;;;;;;8.70;99.90;;;;;;12401767;28;19925;-86
2022/09/29 07:46:04;;;;;;;;;;;8.80;99.90;;;;;;12425887;28;19932;-86
2022/09/29 07:52:05;;;;;;;;;;;8.90;99.90;;;;;;12405743;28;20298;-86
2022/09/29 07:58:07;;;;;;;;;;;9.10;99.90;;;;;;12401870;28;20266;-86
2022/09/29 08:04:09;;;;;;;;;;;9.00;99.90;;;;;;12409707;28;19925;-86
2022/09/29 08:10:10;;;;;;;;;;;9.00;99.90;;;;;;12446253;28;19925;-86
2022/09/29 08:16:18;;;;;;;;;;;9.10;99.90;;;;;;12463807;28;20301;-86
2022/09/29 08:22:20;;;;;;;;;;;9.40;99.90;;;;;;12470350;28;20309;-87
2022/09/29 08:28:21;;;;;;;;;;;9.60;99.90;;;;;;12475639;28;20293;-86
2022/09/29 08:34:32;;;;;;;;;;;9.70;99.90;;;;;;12467856;28;20352;-86
2022/09/29 08:40:34;;;;;;;;;;;10.00;99.90;;;;;;12458661;28;19926;-86
2022/09/29 08:46:43;;;;;;;;;;;10.40;99.90;;;;;;12482926;28;19969;-86
2022/09/29 08:52:48;;;;;;;;;;;10.70;99.90;;;;;;12479058;28;19924;-87
2022/09/29 08:58:53;;;;;;;;;;;10.80;99.90;;;;;;12479020;28;20414;-87
2022/09/29 09:05:00;;;;;;;;;;;10.90;99.90;;;;;;12462786;28;19952;-87
2022/09/29 09:11:02;;;;;;;;;;;10.60;99.90;;;;;;12462764;28;19925;-87
2022/09/29 09:17:22;;;;;;;;;;;10.80;99.90;;;;;;12470186;28;19948;-87
2022/09/29 09:23:33;;;;;;;;;;;11.30;99.90;;;;;;12467574;28;19927;-87
2022/09/29 09:29:36;;;;;;;;;;;11.40;99.90;;;;;;12460129;28;19932;-87
2022/09/29 09:35:53;;;;;;;;;;;11.40;99.90;;;;;;12459425;28;19929;-87
2022/09/29 09:42:02;;;;;;;;;;;11.70;99.90;;;;;;12461903;28;19933;-87
2022/09/29 09:48:23;;;;;;;;;;;11.90;99.90;;;;;;12484694;28;19937;-87
2022/09/29 09:54:38;;;;;;;;;;;12.20;99.90;;;;;;12465640;28;20405;-87
2022/09/29 10:00:48;;;;;;;;;;;12.30;99.90;;;;;;12474416;28;19932;-87
2022/09/29 10:06:51;;;;;;;;;;;12.50;99.90;;;;;;12468126;28;19936;-87
2022/09/29 10:13:00;;;;;;;;;;;12.30;99.90;;;;;;12471045;28;19932;-87
2022/09/29 10:19:01;;;;;;;;;;;12.30;99.90;;;;;;12468475;28;19928;-87
2022/09/29 10:25:19;;;;;;;;;;;12.70;99.90;;;;;;12474524;28;19925;-87
2022/09/29 10:31:22;;;;;;;;;;;12.80;99.90;;;;;;12470959;28;20293;-88
2022/09/29 10:37:34;;;;;;;;;;;12.60;99.90;;;;;;12470569;28;19925;-87
2022/09/29 10:43:37;;;;;;;;;;;13.20;99.90;;;;;;12464069;28;19933;-88
2022/09/29 10:49:39;;;;;;;;;;;13.70;99.90;;;;;;12477747;28;19932;-87
2022/09/29 10:55:50;;;;;;;;;;;13.30;99.90;;;;;;12472863;28;19925;-88
2022/09/29 11:01:59;;;;;;;;;;;12.60;99.90;;;;;;12467460;28;19929;-88
2022/09/29 11:08:02;;;;;;;;;;;12.20;99.90;;;;;;12462170;28;20413;-88
2022/09/29 11:14:04;;;;;;;;;;;12.40;99.90;;;;;;12459351;28;19933;-87
2022/09/29 11:20:09;;;;;;;;;;;12.90;99.90;;;;;;12457031;28;19926;-88
2022/09/29 11:26:11;;;;;;;;;;;13.60;99.90;;;;;;12453339;28;19932;-87
2022/09/29 11:32:33;;;;;;;;;;;14.20;99.90;;;;;;12465288;28;19932;-88
2022/09/29 11:38:53;;;;;;;;;;;14.60;99.90;;;;;;12459784;28;19926;-87
2022/09/29 11:44:57;;;;;;;;;;;15.20;99.90;;;;;;12466186;28;19937;-88
2022/09/29 11:51:01;;;;;;;;;;;15.50;99.90;;;;;;12467779;28;20072;-87
2022/09/29 11:57:08;;;;;;;;;;;15.90;99.90;;;;;;12482541;28;19929;-88
2022/09/29 12:03:28;;;;;;;;;;;16.00;99.90;;;;;;12485191;28;19936;-88
2022/09/29 12:09:36;;;;;;;;;;;15.30;99.90;;;;;;12481367;28;19925;-87
2022/09/29 12:15:43;;;;;;;;;;;15.20;99.90;;;;;;12463309;28;20130;-88
2022/09/29 12:21:49;;;;;;;;;;;15.80;99.90;;;;;;12468417;28;19925;-88
2022/09/29 12:27:53;;;;;;;;;;;16.20;99.90;;;;;;12478178;28;19928;-88
2022/09/29 12:34:00;;;;;;;;;;;16.50;99.90;;;;;;12476562;28;19926;-87
2022/09/29 12:40:09;;;;;;;;;;;16.20;99.90;;;;;;12464716;28;19992;-87
2022/09/29 12:46:30;;;;;;;;;;;15.90;99.90;;;;;;12470899;28;20000;-87
2022/09/29 12:52:39;;;;;;;;;;;15.80;99.90;;;;;;12479851;28;20019;-87
2022/09/29 12:58:44;;;;;;;;;;;15.70;99.90;;;;;;12485957;28;19933;-88
2022/09/29 13:04:53;;;;;;;;;;;16.20;99.90;;;;;;12484267;28;19936;-87
2022/09/29 13:11:20;;;;;;;;;;;15.50;99.90;;;;;;12465848;28;19929;-87
2022/09/29 13:17:33;;;;;;;;;;;15.00;99.90;;;;;;12468477;28;19932;-87
2022/09/29 13:23:53;;;;;;;;;;;14.80;99.90;;;;;;12473549;28;19933;-87
2022/09/29 13:30:10;;;;;;;;;;;14.20;99.90;;;;;;12474529;28;20012;-87
2022/09/29 13:36:21;;;;;;;;;;;13.90;99.90;;;;;;12474672;28;19925;-87
2022/09/29 13:42:27;;;;;;;;;;;13.70;99.90;;;;;;12472809;28;19926;-87
2022/09/29 13:48:33;;;;;;;;;;;13.70;99.90;;;;;;12471243;28;21119;-87
2022/09/29 13:54:40;;;;;;;;;;;13.50;99.90;;;;;;12477259;28;19936;-87
2022/09/29 14:00:42;;;;;;;;;;;13.70;99.90;;;;;;12523118;28;19926;-87
2022/09/29 14:06:46;;;;;;;;;;;13.90;99.90;;;;;;12526286;28;19940;-88
2022/09/29 14:13:00;;;;;;;;;;;14.00;99.90;;;;;;12526573;28;19968;-88
2022/09/29 14:19:21;;;;;;;;;;;14.10;99.90;;;;;;12531273;28;20016;-88
2022/09/29 14:25:26;;;;;;;;;;;14.00;99.90;;;;;;12536367;28;19925;-88
2022/09/29 14:31:29;;;;;;;;;;;13.80;99.90;;;;;;12472375;28;19933;-87
2022/09/29 14:37:31;;;;;;;;;;;13.90;99.90;;;;;;12468011;28;19927;-87
2022/09/29 14:43:38;;;;;;;;;;;14.00;99.90;;;;;;12476644;28;19929;-87
2022/09/29 14:56:18;;;;;;;;;;;14.10;99.90;;;;;;12480249;28;19936;-87
2022/09/29 15:02:22;;;;;;;;;;;14.20;99.90;;;;;;12471139;28;19925;-87
2022/09/29 15:08:29;;;;;;;;;;;14.30;99.90;;;;;;12463125;28;19933;-87
2022/09/29 15:14:32;;;;;;;;;;;14.50;99.90;;;;;;12453616;28;19933;-87
2022/09/29 15:20:51;;;;;;;;;;;14.40;99.90;;;;;;12472755;28;20316;-87
2022/09/29 15:26:53;;;;;;;;;;;14.40;99.90;;;;;;12477654;28;19936;-88
2022/09/29 15:33:14;;;;;;;;;;;14.80;99.90;;;;;;12479362;28;19926;-87
2022/09/29 15:39:30;;;;;;;;;;;14.80;99.90;;;;;;12468407;28;19925;-87
2022/09/29 15:45:32;;;;;;;;;;;14.80;99.90;;;;;;12464382;28;19933;-88
2022/09/29 15:51:34;;;;;;;;;;;15.00;99.90;;;;;;12483909;28;19949;-87
2022/09/29 15:57:46;;;;;;;;;;;15.10;99.90;;;;;;12476180;28;19932;-87
2022/09/29 16:04:01;;;;;;;;;;;14.90;99.90;;;;;;12478981;28;20362;-88
2022/09/29 16:10:08;;;;;;;;;;;14.70;99.90;;;;;;12470639;28;19929;-88
2022/09/29 16:16:10;;;;;;;;;;;14.30;99.90;;;;;;12477596;28;19925;-87
2022/09/29 16:22:16;;;;;;;;;;;14.20;99.90;;;;;;12472209;28;19936;-88
2022/09/29 16:28:23;;;;;;;;;;;14.10;99.90;;;;;;12475584;28;19929;-87
2022/09/29 16:34:26;;;;;;;;;;;13.70;99.90;;;;;;12467884;28;19925;-87
2022/09/29 16:40:29;;;;;;;;;;;13.50;99.90;;;;;;12460546;28;20332;-88
2022/09/29 16:46:31;;;;;;;;;;;13.30;99.90;;;;;;12469155;28;20373;-88
2022/09/29 16:52:43;;;;;;;;;;;13.00;99.90;;;;;;12475569;28;19925;-87
2022/09/29 16:59:01;;;;;;;;;;;12.80;99.90;;;;;;12469949;28;19925;-87
2022/09/29 17:05:04;;;;;;;;;;;12.70;99.90;;;;;;12470422;28;19994;-87
2022/09/29 17:11:05;;;;;;;;;;;12.30;99.90;;;;;;12470004;28;20325;-87
2022/09/29 17:17:13;;;;;;;;;;;12.40;99.90;;;;;;12471975;28;19932;-86
2022/09/29 17:23:15;;;;;;;;;;;12.00;99.90;;;;;;12468671;28;19932;-87
2022/09/29 17:29:17;;;;;;;;;;;11.90;99.90;;;;;;12478452;28;20028;-87
2022/09/29 17:35:20;;;;;;;;;;;11.80;99.90;;;;;;12474964;28;20103;-86
2022/09/29 17:41:22;;;;;;;;;;;11.70;99.90;;;;;;12463866;28;19925;-86
2022/09/29 17:47:24;;;;;;;;;;;11.60;99.90;;;;;;12494973;28;20386;-86
2022/09/29 17:53:30;;;;;;;;;;;11.40;99.90;;;;;;12468370;28;19932;-86
2022/09/29 17:59:33;;;;;;;;;;;11.20;99.90;;;;;;12469210;28;19926;-86
2022/09/29 18:05:37;;;;;;;;;;;11.00;99.90;;;;;;12471663;28;19932;-86
2022/09/29 18:11:38;;;;;;;;;;;10.90;99.90;;;;;;12464758;28;19925;-85
2022/09/29 18:17:40;;;;;;;;;;;10.90;99.90;;;;;;12469717;28;19932;-86
2022/09/29 18:23:42;;;;;;;;;;;10.60;99.90;;;;;;12472104;28;19925;-86
2022/09/29 18:29:44;;;;;;;;;;;10.60;99.90;;;;;;12467346;28;19930;-86
2022/09/29 18:35:50;;;;;;;;;;;10.50;99.90;;;;;;12454505;28;20297;-86
2022/09/29 18:41:52;;;;;;;;;;;10.40;99.90;;;;;;12451652;28;19925;-86
2022/09/29 18:47:58;;;;;;;;;;;10.40;99.90;;;;;;12462437;28;19929;-85
2022/09/29 18:54:01;;;;;;;;;;;10.20;99.90;;;;;;12463478;28;20642;-86
2022/09/29 19:00:03;;;;;;;;;;;10.20;99.90;;;;;;12466553;28;19959;-85
2022/09/29 19:06:05;;;;;;;;;;;10.20;99.90;;;;;;12461974;28;19929;-85
2022/09/29 19:12:09;;;;;;;;;;;10.20;99.90;;;;;;12460238;28;19925;-85
2022/09/29 19:18:21;;;;;;;;;;;10.10;99.90;;;;;;12464291;28;19933;-86
2022/09/29 19:24:23;;;;;;;;;;;9.90;99.90;;;;;;12458593;28;19971;-85
2022/09/29 19:30:25;;;;;;;;;;;9.90;99.90;;;;;;12473685;28;20401;-86
2022/09/29 19:36:28;;;;;;;;;;;10.00;99.90;;;;;;12465939;28;19949;-86
2022/09/29 19:42:29;;;;;;;;;;;10.00;99.90;;;;;;12450972;28;19929;-85
2022/09/29 19:48:31;;;;;;;;;;;9.70;99.90;;;;;;12466157;28;19926;-85
2022/09/29 19:54:34;;;;;;;;;;;9.30;99.90;;;;;;12479921;28;19925;-85
2022/09/29 20:00:39;;;;;;;;;;;9.20;99.90;;;;;;12469596;28;20322;-85
2022/09/29 20:06:41;;;;;;;;;;;9.20;99.90;;;;;;12475850;28;19948;-86
2022/09/29 20:12:43;;;;;;;;;;;9.30;99.90;;;;;;12468029;28;19932;-86
2022/09/29 20:18:46;;;;;;;;;;;9.40;99.90;;;;;;12487500;28;19933;-86
2022/09/29 20:24:50;;;;;;;;;;;9.50;99.90;;;;;;12480258;28;19928;-86
2022/09/29 20:30:58;;;;;;;;;;;9.60;99.90;;;;;;12482738;28;20301;-86
2022/09/29 20:37:00;;;;;;;;;;;9.60;99.90;;;;;;12474585;28;20087;-85
2022/09/29 20:43:01;;;;;;;;;;;9.70;99.90;;;;;;12469410;28;19971;-85
2022/09/29 20:49:03;;;;;;;;;;;9.90;99.90;;;;;;12473240;28;20340;-86
2022/09/29 20:55:05;;;;;;;;;;;9.80;99.90;;;;;;12468627;28;19936;-86
2022/09/29 21:01:09;;;;;;;;;;;9.90;99.90;;;;;;12478703;28;19933;-86
2022/09/29 21:13:31;;;;;;;;;;;9.70;99.90;;;;;;12466857;28;19950;-86
2022/09/29 21:19:32;;;;;;;;;;;9.80;99.90;;;;;;12463537;28;19925;-86
2022/09/29 21:25:34;;;;;;;;;;;9.70;99.90;;;;;;12467248;28;20301;-86
2022/09/29 21:31:35;;;;;;;;;;;9.60;99.90;;;;;;12470788;28;19925;-86
2022/09/29 21:37:37;;;;;;;;;;;9.30;99.90;;;;;;12465329;28;19926;-85
2022/09/29 21:43:42;;;;;;;;;;;9.40;99.90;;;;;;12455361;28;19968;-86
2022/09/29 21:49:44;;;;;;;;;;;9.20;99.90;;;;;;12466400;28;20373;-85
2022/09/29 21:55:46;;;;;;;;;;;9.10;99.90;;;;;;12473631;28;19932;-86
2022/09/29 22:01:47;;;;;;;;;;;9.20;99.90;;;;;;12472462;28;19940;-85
2022/09/29 22:07:49;;;;;;;;;;;9.30;99.90;;;;;;12461457;28;19929;-86
2022/09/29 22:13:52;;;;;;;;;;;9.10;99.90;;;;;;12466662;28;20400;-85
2022/09/29 22:19:55;;;;;;;;;;;9.20;99.90;;;;;;12461383;28;19925;-85
2022/09/29 22:25:57;;;;;;;;;;;9.20;99.90;;;;;;12464427;28;19925;-85
2022/09/29 22:31:58;;;;;;;;;;;9.40;99.90;;;;;;12465721;28;19936;-85
2022/09/29 22:38:00;;;;;;;;;;;9.10;99.90;;;;;;12456950;28;20377;-86
2022/09/29 22:44:02;;;;;;;;;;;9.10;99.90;;;;;;12465963;28;19936;-86
2022/09/29 22:50:04;;;;;;;;;;;9.10;99.90;;;;;;12473577;28;20389;-86
2022/09/29 22:56:11;;;;;;;;;;;9.10;99.90;;;;;;12490059;28;20289;-85
2022/09/29 23:02:12;;;;;;;;;;;8.90;99.90;;;;;;12469910;28;19936;-85
2022/09/29 23:08:14;;;;;;;;;;;8.40;99.90;;;;;;12464770;28;19925;-85
2022/09/29 23:14:16;;;;;;;;;;;8.20;99.90;;;;;;12453851;28;20275;-85
2022/09/29 23:20:18;;;;;;;;;;;8.20;99.90;;;;;;12452431;28;20653;-85
2022/09/29 23:26:22;;;;;;;;;;;8.30;99.90;;;;;;12455662;28;20380;-86
2022/09/29 23:32:23;;;;;;;;;;;8.40;99.90;;;;;;12468805;28;19929;-85
2022/09/29 23:44:45;;;;;;;;;;;8.60;99.90;;;;;;12456504;28;19933;-86
2022/09/29 23:50:47;;;;;;;;;;;8.40;99.90;;;;;;12467292;28;20278;-85
2022/09/29 23:56:49;;;;;;;;;;;8.40;99.90;;;;;;12473728;28;19937;-85
